<?xml version="1.0" encoding="UTF-8" standalone="no" ?>
<gpx xmlns="http://www.topografix.com/GPX/1/1" xmlns:xsi="http://www.w3.org/2001/XMLSchema-instance" xsi:schemaLocation="http://www.topografix.com/GPX/1/1 http://www.topografix.com/GPX/1/1/gpx.xsd" version="1.1" creator="VisuGPX - https://www.visugpx.com">
  <metadata>
    <name>RSPFY-Maincourt</name>
    <desc><![CDATA[Marche nordique dans les bois de Maincourt et de la Roncerie.]]></desc>
  </metadata>
  <trk>
    <name><![CDATA[2022-01-25 09:10]]></name>
    <desc><![CDATA[<p>Heure de départ: 09:10 25 janv. 2022<br/>Heure d'arrivée: 11:52 25 janv. 2022<br/>Distance: 11,5 km (02:42)<br/>Temps déplacement: 02:11<br/>Vitesse moyenne: 4,27 km/h<br/>Vitesse moyenne mouv.: 5,28 km/h<br/>Vitesse Max.: 8,08 km/h<br/>Altitude minimale: 91 m<br/>Altitude maximale: 168 m<br/>Vitesse de montée: 290,1 m/h<br/>Vitesse de descente: -334 m/h<br/>Gain d'altitude: 413 m<br/>Perte d'altitude: -405 m<br/>Temps de montée: 01:25<br/>Temps de descente: 01:12<br/></p><hr align="center" width="480" style="height: 2px; width: 517px"/>]]></desc>
    <trkseg>
      <trkpt lat="48.71991" lon="1.95917">
        <ele>108.1</ele>
        <time>2022-01-25T08:10:29Z</time>
      </trkpt>
      <trkpt lat="48.71987" lon="1.95944">
        <ele>108.5</ele>
        <time>2022-01-25T08:11:04Z</time>
      </trkpt>
      <trkpt lat="48.71986" lon="1.95971">
        <ele>108.9</ele>
        <time>2022-01-25T08:11:22Z</time>
      </trkpt>
      <trkpt lat="48.71979" lon="1.95998">
        <ele>108</ele>
        <time>2022-01-25T08:11:38Z</time>
      </trkpt>
      <trkpt lat="48.71969" lon="1.96022">
        <ele>106.6</ele>
        <time>2022-01-25T08:11:55Z</time>
      </trkpt>
      <trkpt lat="48.71966" lon="1.96051">
        <ele>107.1</ele>
        <time>2022-01-25T08:12:07Z</time>
      </trkpt>
      <trkpt lat="48.7196" lon="1.96078">
        <ele>107.1</ele>
        <time>2022-01-25T08:12:20Z</time>
      </trkpt>
      <trkpt lat="48.71958" lon="1.96106">
        <ele>107.3</ele>
        <time>2022-01-25T08:12:31Z</time>
      </trkpt>
      <trkpt lat="48.7195" lon="1.96131">
        <ele>106.1</ele>
        <time>2022-01-25T08:12:44Z</time>
      </trkpt>
      <trkpt lat="48.71943" lon="1.96158">
        <ele>104.9</ele>
        <time>2022-01-25T08:12:54Z</time>
      </trkpt>
      <trkpt lat="48.71937" lon="1.96184">
        <ele>105.8</ele>
        <time>2022-01-25T08:13:04Z</time>
      </trkpt>
      <trkpt lat="48.7193" lon="1.96212">
        <ele>107.1</ele>
        <time>2022-01-25T08:13:16Z</time>
      </trkpt>
      <trkpt lat="48.71922" lon="1.96237">
        <ele>105.8</ele>
        <time>2022-01-25T08:13:29Z</time>
      </trkpt>
      <trkpt lat="48.7191" lon="1.96258">
        <ele>104.7</ele>
        <time>2022-01-25T08:13:42Z</time>
      </trkpt>
      <trkpt lat="48.719" lon="1.96281">
        <ele>104.3</ele>
        <time>2022-01-25T08:13:56Z</time>
      </trkpt>
      <trkpt lat="48.71889" lon="1.96305">
        <ele>103.1</ele>
        <time>2022-01-25T08:14:10Z</time>
      </trkpt>
      <trkpt lat="48.71884" lon="1.96332">
        <ele>103.8</ele>
        <time>2022-01-25T08:14:23Z</time>
      </trkpt>
      <trkpt lat="48.71879" lon="1.96358">
        <ele>103.9</ele>
        <time>2022-01-25T08:14:35Z</time>
      </trkpt>
      <trkpt lat="48.71882" lon="1.96386">
        <ele>105.2</ele>
        <time>2022-01-25T08:14:55Z</time>
      </trkpt>
      <trkpt lat="48.71876" lon="1.96413">
        <ele>105.9</ele>
        <time>2022-01-25T08:15:06Z</time>
      </trkpt>
      <trkpt lat="48.7187" lon="1.9644">
        <ele>105.5</ele>
        <time>2022-01-25T08:15:17Z</time>
      </trkpt>
      <trkpt lat="48.71864" lon="1.96467">
        <ele>105.4</ele>
        <time>2022-01-25T08:15:28Z</time>
      </trkpt>
      <trkpt lat="48.71856" lon="1.96494">
        <ele>105.1</ele>
        <time>2022-01-25T08:15:40Z</time>
      </trkpt>
      <trkpt lat="48.71845" lon="1.96518">
        <ele>105</ele>
        <time>2022-01-25T08:15:52Z</time>
      </trkpt>
      <trkpt lat="48.71836" lon="1.96543">
        <ele>104.1</ele>
        <time>2022-01-25T08:16:04Z</time>
      </trkpt>
      <trkpt lat="48.71832" lon="1.96572">
        <ele>103.5</ele>
        <time>2022-01-25T08:16:16Z</time>
      </trkpt>
      <trkpt lat="48.71823" lon="1.96597">
        <ele>104.4</ele>
        <time>2022-01-25T08:16:29Z</time>
      </trkpt>
      <trkpt lat="48.71818" lon="1.96624">
        <ele>105.7</ele>
        <time>2022-01-25T08:16:45Z</time>
      </trkpt>
      <trkpt lat="48.71813" lon="1.9665">
        <ele>105.4</ele>
        <time>2022-01-25T08:17:03Z</time>
      </trkpt>
      <trkpt lat="48.71807" lon="1.96677">
        <ele>104.8</ele>
        <time>2022-01-25T08:17:17Z</time>
      </trkpt>
      <trkpt lat="48.71802" lon="1.96704">
        <ele>104.6</ele>
        <time>2022-01-25T08:17:39Z</time>
      </trkpt>
      <trkpt lat="48.71791" lon="1.96727">
        <ele>103.5</ele>
        <time>2022-01-25T08:17:54Z</time>
      </trkpt>
      <trkpt lat="48.71789" lon="1.96754">
        <ele>103.7</ele>
        <time>2022-01-25T08:18:06Z</time>
      </trkpt>
      <trkpt lat="48.7179" lon="1.96781">
        <ele>105</ele>
        <time>2022-01-25T08:18:16Z</time>
      </trkpt>
      <trkpt lat="48.71784" lon="1.96809">
        <ele>104</ele>
        <time>2022-01-25T08:18:29Z</time>
      </trkpt>
      <trkpt lat="48.71788" lon="1.96837">
        <ele>106.2</ele>
        <time>2022-01-25T08:18:44Z</time>
      </trkpt>
      <trkpt lat="48.71785" lon="1.96865">
        <ele>104.8</ele>
        <time>2022-01-25T08:18:59Z</time>
      </trkpt>
      <trkpt lat="48.71781" lon="1.96893">
        <ele>103.3</ele>
        <time>2022-01-25T08:19:13Z</time>
      </trkpt>
      <trkpt lat="48.71769" lon="1.96914">
        <ele>102</ele>
        <time>2022-01-25T08:19:24Z</time>
      </trkpt>
      <trkpt lat="48.71757" lon="1.96935">
        <ele>101.7</ele>
        <time>2022-01-25T08:19:58Z</time>
      </trkpt>
      <trkpt lat="48.71761" lon="1.96962">
        <ele>101.7</ele>
        <time>2022-01-25T08:20:14Z</time>
      </trkpt>
      <trkpt lat="48.71753" lon="1.96986">
        <ele>101.4</ele>
        <time>2022-01-25T08:20:27Z</time>
      </trkpt>
      <trkpt lat="48.7174" lon="1.97006">
        <ele>100.8</ele>
        <time>2022-01-25T08:20:41Z</time>
      </trkpt>
      <trkpt lat="48.71736" lon="1.97033">
        <ele>100</ele>
        <time>2022-01-25T08:20:57Z</time>
      </trkpt>
      <trkpt lat="48.71741" lon="1.97059">
        <ele>100.7</ele>
        <time>2022-01-25T08:21:19Z</time>
      </trkpt>
      <trkpt lat="48.71744" lon="1.97087">
        <ele>103.3</ele>
        <time>2022-01-25T08:21:41Z</time>
      </trkpt>
      <trkpt lat="48.71734" lon="1.97112">
        <ele>102.8</ele>
        <time>2022-01-25T08:22:10Z</time>
      </trkpt>
      <trkpt lat="48.71724" lon="1.97136">
        <ele>102.3</ele>
        <time>2022-01-25T08:22:25Z</time>
      </trkpt>
      <trkpt lat="48.71715" lon="1.9716">
        <ele>102.2</ele>
        <time>2022-01-25T08:22:37Z</time>
      </trkpt>
      <trkpt lat="48.71707" lon="1.97186">
        <ele>101.3</ele>
        <time>2022-01-25T08:22:49Z</time>
      </trkpt>
      <trkpt lat="48.71703" lon="1.97213">
        <ele>101.7</ele>
        <time>2022-01-25T08:22:58Z</time>
      </trkpt>
      <trkpt lat="48.71696" lon="1.9724">
        <ele>101.8</ele>
        <time>2022-01-25T08:23:13Z</time>
      </trkpt>
      <trkpt lat="48.71687" lon="1.97263">
        <ele>101.8</ele>
        <time>2022-01-25T08:23:26Z</time>
      </trkpt>
      <trkpt lat="48.71687" lon="1.97292">
        <ele>104.1</ele>
        <time>2022-01-25T08:23:40Z</time>
      </trkpt>
      <trkpt lat="48.71687" lon="1.9732">
        <ele>105.4</ele>
        <time>2022-01-25T08:23:54Z</time>
      </trkpt>
      <trkpt lat="48.71675" lon="1.97342">
        <ele>103.2</ele>
        <time>2022-01-25T08:24:06Z</time>
      </trkpt>
      <trkpt lat="48.71665" lon="1.97364">
        <ele>102.1</ele>
        <time>2022-01-25T08:24:18Z</time>
      </trkpt>
      <trkpt lat="48.71661" lon="1.97393">
        <ele>104.6</ele>
        <time>2022-01-25T08:24:30Z</time>
      </trkpt>
      <trkpt lat="48.71665" lon="1.97421">
        <ele>107.1</ele>
        <time>2022-01-25T08:24:44Z</time>
      </trkpt>
      <trkpt lat="48.71653" lon="1.97443">
        <ele>106</ele>
        <time>2022-01-25T08:25:00Z</time>
      </trkpt>
      <trkpt lat="48.71637" lon="1.97458">
        <ele>104.1</ele>
        <time>2022-01-25T08:25:25Z</time>
      </trkpt>
      <trkpt lat="48.71625" lon="1.97478">
        <ele>103.8</ele>
        <time>2022-01-25T08:25:42Z</time>
      </trkpt>
      <trkpt lat="48.71611" lon="1.97496">
        <ele>101.5</ele>
        <time>2022-01-25T08:26:09Z</time>
      </trkpt>
      <trkpt lat="48.71596" lon="1.97512">
        <ele>101.4</ele>
        <time>2022-01-25T08:26:24Z</time>
      </trkpt>
      <trkpt lat="48.71588" lon="1.97537">
        <ele>104</ele>
        <time>2022-01-25T08:26:45Z</time>
      </trkpt>
      <trkpt lat="48.71575" lon="1.97559">
        <ele>105.7</ele>
        <time>2022-01-25T08:27:00Z</time>
      </trkpt>
      <trkpt lat="48.71565" lon="1.97581">
        <ele>104.4</ele>
        <time>2022-01-25T08:27:16Z</time>
      </trkpt>
      <trkpt lat="48.7155" lon="1.97599">
        <ele>100.9</ele>
        <time>2022-01-25T08:27:30Z</time>
      </trkpt>
      <trkpt lat="48.71536" lon="1.97618">
        <ele>100.3</ele>
        <time>2022-01-25T08:27:47Z</time>
      </trkpt>
      <trkpt lat="48.71524" lon="1.9764">
        <ele>100.8</ele>
        <time>2022-01-25T08:28:02Z</time>
      </trkpt>
      <trkpt lat="48.71523" lon="1.97668">
        <ele>103.9</ele>
        <time>2022-01-25T08:28:15Z</time>
      </trkpt>
      <trkpt lat="48.71519" lon="1.97695">
        <ele>104.8</ele>
        <time>2022-01-25T08:28:32Z</time>
      </trkpt>
      <trkpt lat="48.71506" lon="1.97715">
        <ele>102.2</ele>
        <time>2022-01-25T08:28:50Z</time>
      </trkpt>
      <trkpt lat="48.71492" lon="1.97735">
        <ele>100.8</ele>
        <time>2022-01-25T08:29:06Z</time>
      </trkpt>
      <trkpt lat="48.71488" lon="1.97762">
        <ele>101.8</ele>
        <time>2022-01-25T08:29:28Z</time>
      </trkpt>
      <trkpt lat="48.71481" lon="1.97787">
        <ele>101.1</ele>
        <time>2022-01-25T08:29:45Z</time>
      </trkpt>
      <trkpt lat="48.71474" lon="1.97814">
        <ele>100.5</ele>
        <time>2022-01-25T08:30:01Z</time>
      </trkpt>
      <trkpt lat="48.71467" lon="1.97841">
        <ele>101.6</ele>
        <time>2022-01-25T08:30:20Z</time>
      </trkpt>
      <trkpt lat="48.71467" lon="1.97868">
        <ele>104.1</ele>
        <time>2022-01-25T08:30:41Z</time>
      </trkpt>
      <trkpt lat="48.7146" lon="1.97893">
        <ele>102.4</ele>
        <time>2022-01-25T08:31:04Z</time>
      </trkpt>
      <trkpt lat="48.71455" lon="1.9792">
        <ele>101.3</ele>
        <time>2022-01-25T08:31:25Z</time>
      </trkpt>
      <trkpt lat="48.71451" lon="1.97948">
        <ele>102.6</ele>
        <time>2022-01-25T08:31:43Z</time>
      </trkpt>
      <trkpt lat="48.71449" lon="1.97975">
        <ele>105.5</ele>
        <time>2022-01-25T08:32:00Z</time>
      </trkpt>
      <trkpt lat="48.71444" lon="1.98001">
        <ele>107.1</ele>
        <time>2022-01-25T08:32:15Z</time>
      </trkpt>
      <trkpt lat="48.71442" lon="1.98029">
        <ele>110.8</ele>
        <time>2022-01-25T08:32:38Z</time>
      </trkpt>
      <trkpt lat="48.71441" lon="1.98058">
        <ele>110.6</ele>
        <time>2022-01-25T08:32:52Z</time>
      </trkpt>
      <trkpt lat="48.71439" lon="1.98086">
        <ele>110</ele>
        <time>2022-01-25T08:33:08Z</time>
      </trkpt>
      <trkpt lat="48.71436" lon="1.98114">
        <ele>108.2</ele>
        <time>2022-01-25T08:33:25Z</time>
      </trkpt>
      <trkpt lat="48.71432" lon="1.98143">
        <ele>105.8</ele>
        <time>2022-01-25T08:33:38Z</time>
      </trkpt>
      <trkpt lat="48.71429" lon="1.9817">
        <ele>105.2</ele>
        <time>2022-01-25T08:33:56Z</time>
      </trkpt>
      <trkpt lat="48.71418" lon="1.98192">
        <ele>103.2</ele>
        <time>2022-01-25T08:34:11Z</time>
      </trkpt>
      <trkpt lat="48.71406" lon="1.98216">
        <ele>100.7</ele>
        <time>2022-01-25T08:34:24Z</time>
      </trkpt>
      <trkpt lat="48.71397" lon="1.9824">
        <ele>98.8</ele>
        <time>2022-01-25T08:34:34Z</time>
      </trkpt>
      <trkpt lat="48.71385" lon="1.98263">
        <ele>98.4</ele>
        <time>2022-01-25T08:34:44Z</time>
      </trkpt>
      <trkpt lat="48.7137" lon="1.98283">
        <ele>99.1</ele>
        <time>2022-01-25T08:34:58Z</time>
      </trkpt>
      <trkpt lat="48.71358" lon="1.98303">
        <ele>100.7</ele>
        <time>2022-01-25T08:35:09Z</time>
      </trkpt>
      <trkpt lat="48.71347" lon="1.98326">
        <ele>100.2</ele>
        <time>2022-01-25T08:35:23Z</time>
      </trkpt>
      <trkpt lat="48.7134" lon="1.98352">
        <ele>100.6</ele>
        <time>2022-01-25T08:35:34Z</time>
      </trkpt>
      <trkpt lat="48.71328" lon="1.98376">
        <ele>99.5</ele>
        <time>2022-01-25T08:35:45Z</time>
      </trkpt>
      <trkpt lat="48.71313" lon="1.98395">
        <ele>97.5</ele>
        <time>2022-01-25T08:35:57Z</time>
      </trkpt>
      <trkpt lat="48.71305" lon="1.98421">
        <ele>96.1</ele>
        <time>2022-01-25T08:36:11Z</time>
      </trkpt>
      <trkpt lat="48.71302" lon="1.98448">
        <ele>96.4</ele>
        <time>2022-01-25T08:36:24Z</time>
      </trkpt>
      <trkpt lat="48.71305" lon="1.98476">
        <ele>96.1</ele>
        <time>2022-01-25T08:36:38Z</time>
      </trkpt>
      <trkpt lat="48.7131" lon="1.98503">
        <ele>97.4</ele>
        <time>2022-01-25T08:37:11Z</time>
      </trkpt>
      <trkpt lat="48.71326" lon="1.98519">
        <ele>98.7</ele>
        <time>2022-01-25T08:37:26Z</time>
      </trkpt>
      <trkpt lat="48.71344" lon="1.98528">
        <ele>100.2</ele>
        <time>2022-01-25T08:37:42Z</time>
      </trkpt>
      <trkpt lat="48.71362" lon="1.98536">
        <ele>101.9</ele>
        <time>2022-01-25T08:37:57Z</time>
      </trkpt>
      <trkpt lat="48.71379" lon="1.98545">
        <ele>105.3</ele>
        <time>2022-01-25T08:38:11Z</time>
      </trkpt>
      <trkpt lat="48.71395" lon="1.98562">
        <ele>107.1</ele>
        <time>2022-01-25T08:38:25Z</time>
      </trkpt>
      <trkpt lat="48.71407" lon="1.98582">
        <ele>107.4</ele>
        <time>2022-01-25T08:38:40Z</time>
      </trkpt>
      <trkpt lat="48.71424" lon="1.98593">
        <ele>109.7</ele>
        <time>2022-01-25T08:38:57Z</time>
      </trkpt>
      <trkpt lat="48.71442" lon="1.98601">
        <ele>111.2</ele>
        <time>2022-01-25T08:39:13Z</time>
      </trkpt>
      <trkpt lat="48.7146" lon="1.98598">
        <ele>113.3</ele>
        <time>2022-01-25T08:39:23Z</time>
      </trkpt>
      <trkpt lat="48.71478" lon="1.98591">
        <ele>114.9</ele>
        <time>2022-01-25T08:39:40Z</time>
      </trkpt>
      <trkpt lat="48.71496" lon="1.9858">
        <ele>115.3</ele>
        <time>2022-01-25T08:39:53Z</time>
      </trkpt>
      <trkpt lat="48.71512" lon="1.98566">
        <ele>116.6</ele>
        <time>2022-01-25T08:40:05Z</time>
      </trkpt>
      <trkpt lat="48.71528" lon="1.98549">
        <ele>118</ele>
        <time>2022-01-25T08:40:18Z</time>
      </trkpt>
      <trkpt lat="48.71544" lon="1.98536">
        <ele>120.8</ele>
        <time>2022-01-25T08:40:31Z</time>
      </trkpt>
      <trkpt lat="48.71561" lon="1.98528">
        <ele>122.6</ele>
        <time>2022-01-25T08:40:42Z</time>
      </trkpt>
      <trkpt lat="48.71578" lon="1.98516">
        <ele>125.2</ele>
        <time>2022-01-25T08:40:55Z</time>
      </trkpt>
      <trkpt lat="48.71593" lon="1.98502">
        <ele>127.1</ele>
        <time>2022-01-25T08:41:08Z</time>
      </trkpt>
      <trkpt lat="48.71608" lon="1.98484">
        <ele>127.8</ele>
        <time>2022-01-25T08:41:23Z</time>
      </trkpt>
      <trkpt lat="48.71626" lon="1.98477">
        <ele>130.5</ele>
        <time>2022-01-25T08:41:41Z</time>
      </trkpt>
      <trkpt lat="48.71644" lon="1.98479">
        <ele>134.5</ele>
        <time>2022-01-25T08:42:01Z</time>
      </trkpt>
      <trkpt lat="48.71647" lon="1.98507">
        <ele>137.9</ele>
        <time>2022-01-25T08:44:47Z</time>
      </trkpt>
      <trkpt lat="48.71645" lon="1.98536">
        <ele>140.8</ele>
        <time>2022-01-25T08:45:02Z</time>
      </trkpt>
      <trkpt lat="48.71642" lon="1.98563">
        <ele>143.4</ele>
        <time>2022-01-25T08:45:15Z</time>
      </trkpt>
      <trkpt lat="48.71645" lon="1.98591">
        <ele>146.3</ele>
        <time>2022-01-25T08:45:31Z</time>
      </trkpt>
      <trkpt lat="48.71648" lon="1.9862">
        <ele>149.5</ele>
        <time>2022-01-25T08:45:46Z</time>
      </trkpt>
      <trkpt lat="48.71641" lon="1.98647">
        <ele>149.7</ele>
        <time>2022-01-25T08:45:59Z</time>
      </trkpt>
      <trkpt lat="48.71637" lon="1.98675">
        <ele>151.3</ele>
        <time>2022-01-25T08:46:14Z</time>
      </trkpt>
      <trkpt lat="48.7163" lon="1.98702">
        <ele>152.1</ele>
        <time>2022-01-25T08:46:32Z</time>
      </trkpt>
      <trkpt lat="48.71623" lon="1.98729">
        <ele>153.8</ele>
        <time>2022-01-25T08:46:46Z</time>
      </trkpt>
      <trkpt lat="48.7162" lon="1.98756">
        <ele>156.5</ele>
        <time>2022-01-25T08:47:02Z</time>
      </trkpt>
      <trkpt lat="48.71617" lon="1.98784">
        <ele>159.1</ele>
        <time>2022-01-25T08:47:18Z</time>
      </trkpt>
      <trkpt lat="48.71616" lon="1.98811">
        <ele>162</ele>
        <time>2022-01-25T08:47:34Z</time>
      </trkpt>
      <trkpt lat="48.71617" lon="1.98839">
        <ele>163.6</ele>
        <time>2022-01-25T08:47:48Z</time>
      </trkpt>
      <trkpt lat="48.71619" lon="1.98867">
        <ele>164.4</ele>
        <time>2022-01-25T08:48:02Z</time>
      </trkpt>
      <trkpt lat="48.71633" lon="1.98848">
        <ele>164.7</ele>
        <time>2022-01-25T08:51:17Z</time>
      </trkpt>
      <trkpt lat="48.7164" lon="1.98822">
        <ele>164.6</ele>
        <time>2022-01-25T08:51:28Z</time>
      </trkpt>
      <trkpt lat="48.71648" lon="1.98797">
        <ele>163.8</ele>
        <time>2022-01-25T08:51:40Z</time>
      </trkpt>
      <trkpt lat="48.71661" lon="1.98776">
        <ele>163.7</ele>
        <time>2022-01-25T08:51:52Z</time>
      </trkpt>
      <trkpt lat="48.71673" lon="1.98754">
        <ele>163.3</ele>
        <time>2022-01-25T08:52:04Z</time>
      </trkpt>
      <trkpt lat="48.71685" lon="1.98733">
        <ele>163.2</ele>
        <time>2022-01-25T08:52:16Z</time>
      </trkpt>
      <trkpt lat="48.71696" lon="1.98709">
        <ele>164</ele>
        <time>2022-01-25T08:52:28Z</time>
      </trkpt>
      <trkpt lat="48.71707" lon="1.98688">
        <ele>163.9</ele>
        <time>2022-01-25T08:52:39Z</time>
      </trkpt>
      <trkpt lat="48.7172" lon="1.98668">
        <ele>163.9</ele>
        <time>2022-01-25T08:52:51Z</time>
      </trkpt>
      <trkpt lat="48.71731" lon="1.98645">
        <ele>163.2</ele>
        <time>2022-01-25T08:53:04Z</time>
      </trkpt>
      <trkpt lat="48.71742" lon="1.98623">
        <ele>163</ele>
        <time>2022-01-25T08:53:16Z</time>
      </trkpt>
      <trkpt lat="48.71755" lon="1.98603">
        <ele>162.7</ele>
        <time>2022-01-25T08:53:27Z</time>
      </trkpt>
      <trkpt lat="48.71767" lon="1.9858">
        <ele>161.9</ele>
        <time>2022-01-25T08:53:40Z</time>
      </trkpt>
      <trkpt lat="48.71779" lon="1.9856">
        <ele>162</ele>
        <time>2022-01-25T08:53:52Z</time>
      </trkpt>
      <trkpt lat="48.7179" lon="1.98536">
        <ele>161.2</ele>
        <time>2022-01-25T08:54:05Z</time>
      </trkpt>
      <trkpt lat="48.718" lon="1.98514">
        <ele>161.8</ele>
        <time>2022-01-25T08:54:18Z</time>
      </trkpt>
      <trkpt lat="48.71809" lon="1.98489">
        <ele>162.3</ele>
        <time>2022-01-25T08:54:31Z</time>
      </trkpt>
      <trkpt lat="48.71822" lon="1.98467">
        <ele>163.1</ele>
        <time>2022-01-25T08:54:56Z</time>
      </trkpt>
      <trkpt lat="48.71834" lon="1.98446">
        <ele>163.1</ele>
        <time>2022-01-25T08:55:10Z</time>
      </trkpt>
      <trkpt lat="48.7185" lon="1.98431">
        <ele>163.3</ele>
        <time>2022-01-25T08:55:26Z</time>
      </trkpt>
      <trkpt lat="48.71854" lon="1.98405">
        <ele>162.8</ele>
        <time>2022-01-25T08:55:58Z</time>
      </trkpt>
      <trkpt lat="48.7185" lon="1.98377">
        <ele>161.8</ele>
        <time>2022-01-25T08:56:21Z</time>
      </trkpt>
      <trkpt lat="48.71848" lon="1.98349">
        <ele>160.8</ele>
        <time>2022-01-25T08:56:40Z</time>
      </trkpt>
      <trkpt lat="48.71842" lon="1.98322">
        <ele>159.7</ele>
        <time>2022-01-25T08:56:58Z</time>
      </trkpt>
      <trkpt lat="48.71837" lon="1.98294">
        <ele>158.9</ele>
        <time>2022-01-25T08:57:12Z</time>
      </trkpt>
      <trkpt lat="48.71831" lon="1.98267">
        <ele>159</ele>
        <time>2022-01-25T08:57:25Z</time>
      </trkpt>
      <trkpt lat="48.71827" lon="1.9824">
        <ele>159.8</ele>
        <time>2022-01-25T08:57:42Z</time>
      </trkpt>
      <trkpt lat="48.71821" lon="1.98214">
        <ele>160.4</ele>
        <time>2022-01-25T08:57:52Z</time>
      </trkpt>
      <trkpt lat="48.71809" lon="1.9819">
        <ele>160.4</ele>
        <time>2022-01-25T08:58:03Z</time>
      </trkpt>
      <trkpt lat="48.71797" lon="1.98167">
        <ele>160.7</ele>
        <time>2022-01-25T08:58:15Z</time>
      </trkpt>
      <trkpt lat="48.71786" lon="1.98146">
        <ele>161.1</ele>
        <time>2022-01-25T08:58:29Z</time>
      </trkpt>
      <trkpt lat="48.71775" lon="1.98123">
        <ele>161.6</ele>
        <time>2022-01-25T08:58:40Z</time>
      </trkpt>
      <trkpt lat="48.71765" lon="1.98098">
        <ele>162.2</ele>
        <time>2022-01-25T08:58:55Z</time>
      </trkpt>
      <trkpt lat="48.71757" lon="1.98074">
        <ele>162.5</ele>
        <time>2022-01-25T08:59:05Z</time>
      </trkpt>
      <trkpt lat="48.71748" lon="1.9805">
        <ele>162.9</ele>
        <time>2022-01-25T08:59:17Z</time>
      </trkpt>
      <trkpt lat="48.7174" lon="1.98025">
        <ele>162.6</ele>
        <time>2022-01-25T08:59:31Z</time>
      </trkpt>
      <trkpt lat="48.71732" lon="1.97999">
        <ele>162.4</ele>
        <time>2022-01-25T08:59:41Z</time>
      </trkpt>
      <trkpt lat="48.71722" lon="1.97973">
        <ele>163</ele>
        <time>2022-01-25T08:59:53Z</time>
      </trkpt>
      <trkpt lat="48.71712" lon="1.97951">
        <ele>162.6</ele>
        <time>2022-01-25T09:00:07Z</time>
      </trkpt>
      <trkpt lat="48.71704" lon="1.97925">
        <ele>161.7</ele>
        <time>2022-01-25T09:00:20Z</time>
      </trkpt>
      <trkpt lat="48.71696" lon="1.97899">
        <ele>161.1</ele>
        <time>2022-01-25T09:00:30Z</time>
      </trkpt>
      <trkpt lat="48.71688" lon="1.97873">
        <ele>160.5</ele>
        <time>2022-01-25T09:00:40Z</time>
      </trkpt>
      <trkpt lat="48.7168" lon="1.97848">
        <ele>159.5</ele>
        <time>2022-01-25T09:00:59Z</time>
      </trkpt>
      <trkpt lat="48.7167" lon="1.97823">
        <ele>158.3</ele>
        <time>2022-01-25T09:01:10Z</time>
      </trkpt>
      <trkpt lat="48.71662" lon="1.97796">
        <ele>157</ele>
        <time>2022-01-25T09:01:20Z</time>
      </trkpt>
      <trkpt lat="48.71654" lon="1.97771">
        <ele>155</ele>
        <time>2022-01-25T09:01:31Z</time>
      </trkpt>
      <trkpt lat="48.71646" lon="1.97746">
        <ele>152.7</ele>
        <time>2022-01-25T09:02:29Z</time>
      </trkpt>
      <trkpt lat="48.71657" lon="1.97722">
        <ele>152.9</ele>
        <time>2022-01-25T09:02:47Z</time>
      </trkpt>
      <trkpt lat="48.71671" lon="1.97703">
        <ele>154.2</ele>
        <time>2022-01-25T09:03:02Z</time>
      </trkpt>
      <trkpt lat="48.71686" lon="1.97687">
        <ele>155.1</ele>
        <time>2022-01-25T09:03:16Z</time>
      </trkpt>
      <trkpt lat="48.71698" lon="1.97666">
        <ele>155.3</ele>
        <time>2022-01-25T09:03:28Z</time>
      </trkpt>
      <trkpt lat="48.71711" lon="1.97645">
        <ele>155.3</ele>
        <time>2022-01-25T09:03:41Z</time>
      </trkpt>
      <trkpt lat="48.7172" lon="1.97618">
        <ele>154.9</ele>
        <time>2022-01-25T09:03:53Z</time>
      </trkpt>
      <trkpt lat="48.71723" lon="1.97591">
        <ele>153.7</ele>
        <time>2022-01-25T09:04:02Z</time>
      </trkpt>
      <trkpt lat="48.71731" lon="1.97566">
        <ele>153.1</ele>
        <time>2022-01-25T09:04:13Z</time>
      </trkpt>
      <trkpt lat="48.71742" lon="1.97542">
        <ele>153.6</ele>
        <time>2022-01-25T09:04:25Z</time>
      </trkpt>
      <trkpt lat="48.7175" lon="1.97516">
        <ele>154.1</ele>
        <time>2022-01-25T09:04:37Z</time>
      </trkpt>
      <trkpt lat="48.71757" lon="1.97489">
        <ele>153.2</ele>
        <time>2022-01-25T09:04:49Z</time>
      </trkpt>
      <trkpt lat="48.71766" lon="1.97465">
        <ele>153.7</ele>
        <time>2022-01-25T09:05:02Z</time>
      </trkpt>
      <trkpt lat="48.71774" lon="1.9744">
        <ele>154.4</ele>
        <time>2022-01-25T09:05:15Z</time>
      </trkpt>
      <trkpt lat="48.71787" lon="1.97421">
        <ele>155.1</ele>
        <time>2022-01-25T09:05:30Z</time>
      </trkpt>
      <trkpt lat="48.71791" lon="1.97395">
        <ele>153.3</ele>
        <time>2022-01-25T09:05:38Z</time>
      </trkpt>
      <trkpt lat="48.71801" lon="1.97372">
        <ele>153.8</ele>
        <time>2022-01-25T09:05:53Z</time>
      </trkpt>
      <trkpt lat="48.71812" lon="1.9735">
        <ele>153.6</ele>
        <time>2022-01-25T09:06:07Z</time>
      </trkpt>
      <trkpt lat="48.71824" lon="1.97326">
        <ele>152.9</ele>
        <time>2022-01-25T09:06:20Z</time>
      </trkpt>
      <trkpt lat="48.71833" lon="1.973">
        <ele>152.4</ele>
        <time>2022-01-25T09:06:34Z</time>
      </trkpt>
      <trkpt lat="48.71839" lon="1.97274">
        <ele>150.1</ele>
        <time>2022-01-25T09:07:11Z</time>
      </trkpt>
      <trkpt lat="48.71847" lon="1.97247">
        <ele>147.7</ele>
        <time>2022-01-25T09:07:25Z</time>
      </trkpt>
      <trkpt lat="48.7185" lon="1.9722">
        <ele>146.1</ele>
        <time>2022-01-25T09:07:37Z</time>
      </trkpt>
      <trkpt lat="48.71863" lon="1.97198">
        <ele>145</ele>
        <time>2022-01-25T09:07:56Z</time>
      </trkpt>
      <trkpt lat="48.71862" lon="1.9717">
        <ele>140.5</ele>
        <time>2022-01-25T09:08:33Z</time>
      </trkpt>
      <trkpt lat="48.71879" lon="1.9716">
        <ele>135.8</ele>
        <time>2022-01-25T09:09:18Z</time>
      </trkpt>
      <trkpt lat="48.71894" lon="1.97143">
        <ele>131.9</ele>
        <time>2022-01-25T09:09:44Z</time>
      </trkpt>
      <trkpt lat="48.71909" lon="1.97128">
        <ele>131.4</ele>
        <time>2022-01-25T09:10:38Z</time>
      </trkpt>
      <trkpt lat="48.71927" lon="1.97121">
        <ele>131.7</ele>
        <time>2022-01-25T09:10:53Z</time>
      </trkpt>
      <trkpt lat="48.71938" lon="1.97098">
        <ele>127</ele>
        <time>2022-01-25T09:11:06Z</time>
      </trkpt>
      <trkpt lat="48.71951" lon="1.97078">
        <ele>124</ele>
        <time>2022-01-25T09:11:21Z</time>
      </trkpt>
      <trkpt lat="48.71969" lon="1.97086">
        <ele>125.4</ele>
        <time>2022-01-25T09:11:58Z</time>
      </trkpt>
      <trkpt lat="48.71984" lon="1.97101">
        <ele>126.2</ele>
        <time>2022-01-25T09:12:20Z</time>
      </trkpt>
      <trkpt lat="48.72" lon="1.97116">
        <ele>126.9</ele>
        <time>2022-01-25T09:12:38Z</time>
      </trkpt>
      <trkpt lat="48.72013" lon="1.97135">
        <ele>128.6</ele>
        <time>2022-01-25T09:12:54Z</time>
      </trkpt>
      <trkpt lat="48.72029" lon="1.97151">
        <ele>128.6</ele>
        <time>2022-01-25T09:13:12Z</time>
      </trkpt>
      <trkpt lat="48.72044" lon="1.97166">
        <ele>128.7</ele>
        <time>2022-01-25T09:13:28Z</time>
      </trkpt>
      <trkpt lat="48.7206" lon="1.9718">
        <ele>128.9</ele>
        <time>2022-01-25T09:13:49Z</time>
      </trkpt>
      <trkpt lat="48.72078" lon="1.97187">
        <ele>127.8</ele>
        <time>2022-01-25T09:14:00Z</time>
      </trkpt>
      <trkpt lat="48.72078" lon="1.97216">
        <ele>131.5</ele>
        <time>2022-01-25T09:14:44Z</time>
      </trkpt>
      <trkpt lat="48.72083" lon="1.97243">
        <ele>134.2</ele>
        <time>2022-01-25T09:14:59Z</time>
      </trkpt>
      <trkpt lat="48.72081" lon="1.97271">
        <ele>137.1</ele>
        <time>2022-01-25T09:15:24Z</time>
      </trkpt>
      <trkpt lat="48.72084" lon="1.97299">
        <ele>139.2</ele>
        <time>2022-01-25T09:15:37Z</time>
      </trkpt>
      <trkpt lat="48.72095" lon="1.97322">
        <ele>140.3</ele>
        <time>2022-01-25T09:15:51Z</time>
      </trkpt>
      <trkpt lat="48.72105" lon="1.97345">
        <ele>142.4</ele>
        <time>2022-01-25T09:16:07Z</time>
      </trkpt>
      <trkpt lat="48.72115" lon="1.97369">
        <ele>144.5</ele>
        <time>2022-01-25T09:16:23Z</time>
      </trkpt>
      <trkpt lat="48.72124" lon="1.97394">
        <ele>145.4</ele>
        <time>2022-01-25T09:16:40Z</time>
      </trkpt>
      <trkpt lat="48.72128" lon="1.97421">
        <ele>147.2</ele>
        <time>2022-01-25T09:16:56Z</time>
      </trkpt>
      <trkpt lat="48.7213" lon="1.97448">
        <ele>149.5</ele>
        <time>2022-01-25T09:17:10Z</time>
      </trkpt>
      <trkpt lat="48.72129" lon="1.97476">
        <ele>153.1</ele>
        <time>2022-01-25T09:17:27Z</time>
      </trkpt>
      <trkpt lat="48.72135" lon="1.97503">
        <ele>155</ele>
        <time>2022-01-25T09:17:43Z</time>
      </trkpt>
      <trkpt lat="48.72141" lon="1.97531">
        <ele>158.1</ele>
        <time>2022-01-25T09:17:58Z</time>
      </trkpt>
      <trkpt lat="48.72146" lon="1.97558">
        <ele>159.9</ele>
        <time>2022-01-25T09:18:14Z</time>
      </trkpt>
      <trkpt lat="48.72158" lon="1.97581">
        <ele>160.8</ele>
        <time>2022-01-25T09:18:27Z</time>
      </trkpt>
      <trkpt lat="48.7217" lon="1.97603">
        <ele>161.6</ele>
        <time>2022-01-25T09:18:41Z</time>
      </trkpt>
      <trkpt lat="48.72183" lon="1.97623">
        <ele>161.9</ele>
        <time>2022-01-25T09:18:56Z</time>
      </trkpt>
      <trkpt lat="48.72194" lon="1.97645">
        <ele>162</ele>
        <time>2022-01-25T09:19:13Z</time>
      </trkpt>
      <trkpt lat="48.72208" lon="1.97664">
        <ele>161.1</ele>
        <time>2022-01-25T09:19:31Z</time>
      </trkpt>
      <trkpt lat="48.72192" lon="1.97678">
        <ele>162.1</ele>
        <time>2022-01-25T09:23:55Z</time>
      </trkpt>
      <trkpt lat="48.72174" lon="1.97683">
        <ele>162.7</ele>
        <time>2022-01-25T09:24:09Z</time>
      </trkpt>
      <trkpt lat="48.72156" lon="1.97687">
        <ele>163</ele>
        <time>2022-01-25T09:24:23Z</time>
      </trkpt>
      <trkpt lat="48.72137" lon="1.97688">
        <ele>163</ele>
        <time>2022-01-25T09:24:37Z</time>
      </trkpt>
      <trkpt lat="48.72118" lon="1.9769">
        <ele>162.9</ele>
        <time>2022-01-25T09:24:54Z</time>
      </trkpt>
      <trkpt lat="48.721" lon="1.97686">
        <ele>162.4</ele>
        <time>2022-01-25T09:25:08Z</time>
      </trkpt>
      <trkpt lat="48.72082" lon="1.97689">
        <ele>162.1</ele>
        <time>2022-01-25T09:25:21Z</time>
      </trkpt>
      <trkpt lat="48.72063" lon="1.97697">
        <ele>162.7</ele>
        <time>2022-01-25T09:25:35Z</time>
      </trkpt>
      <trkpt lat="48.72048" lon="1.97714">
        <ele>163</ele>
        <time>2022-01-25T09:25:51Z</time>
      </trkpt>
      <trkpt lat="48.72038" lon="1.97739">
        <ele>163</ele>
        <time>2022-01-25T09:26:08Z</time>
      </trkpt>
      <trkpt lat="48.7203" lon="1.97764">
        <ele>163</ele>
        <time>2022-01-25T09:26:24Z</time>
      </trkpt>
      <trkpt lat="48.72025" lon="1.97791">
        <ele>163.1</ele>
        <time>2022-01-25T09:26:39Z</time>
      </trkpt>
      <trkpt lat="48.72021" lon="1.97818">
        <ele>163.6</ele>
        <time>2022-01-25T09:26:54Z</time>
      </trkpt>
      <trkpt lat="48.7202" lon="1.97846">
        <ele>164</ele>
        <time>2022-01-25T09:27:14Z</time>
      </trkpt>
      <trkpt lat="48.72017" lon="1.97874">
        <ele>164</ele>
        <time>2022-01-25T09:27:27Z</time>
      </trkpt>
      <trkpt lat="48.72012" lon="1.97902">
        <ele>164</ele>
        <time>2022-01-25T09:27:42Z</time>
      </trkpt>
      <trkpt lat="48.72014" lon="1.9793">
        <ele>164</ele>
        <time>2022-01-25T09:27:56Z</time>
      </trkpt>
      <trkpt lat="48.7202" lon="1.97957">
        <ele>164</ele>
        <time>2022-01-25T09:28:09Z</time>
      </trkpt>
      <trkpt lat="48.72012" lon="1.97982">
        <ele>164</ele>
        <time>2022-01-25T09:28:21Z</time>
      </trkpt>
      <trkpt lat="48.72006" lon="1.98009">
        <ele>164</ele>
        <time>2022-01-25T09:28:32Z</time>
      </trkpt>
      <trkpt lat="48.71998" lon="1.98034">
        <ele>164</ele>
        <time>2022-01-25T09:28:44Z</time>
      </trkpt>
      <trkpt lat="48.71994" lon="1.98062">
        <ele>164</ele>
        <time>2022-01-25T09:28:53Z</time>
      </trkpt>
      <trkpt lat="48.71994" lon="1.9809">
        <ele>164</ele>
        <time>2022-01-25T09:29:12Z</time>
      </trkpt>
      <trkpt lat="48.72011" lon="1.98103">
        <ele>164</ele>
        <time>2022-01-25T09:30:18Z</time>
      </trkpt>
      <trkpt lat="48.72027" lon="1.98119">
        <ele>164</ele>
        <time>2022-01-25T09:30:45Z</time>
      </trkpt>
      <trkpt lat="48.72046" lon="1.98123">
        <ele>164</ele>
        <time>2022-01-25T09:30:56Z</time>
      </trkpt>
      <trkpt lat="48.72064" lon="1.98128">
        <ele>164.2</ele>
        <time>2022-01-25T09:31:06Z</time>
      </trkpt>
      <trkpt lat="48.72081" lon="1.98139">
        <ele>164.9</ele>
        <time>2022-01-25T09:31:18Z</time>
      </trkpt>
      <trkpt lat="48.72099" lon="1.98143">
        <ele>165</ele>
        <time>2022-01-25T09:31:31Z</time>
      </trkpt>
      <trkpt lat="48.72117" lon="1.98144">
        <ele>164.8</ele>
        <time>2022-01-25T09:31:42Z</time>
      </trkpt>
      <trkpt lat="48.72136" lon="1.98148">
        <ele>164.4</ele>
        <time>2022-01-25T09:31:51Z</time>
      </trkpt>
      <trkpt lat="48.72154" lon="1.98156">
        <ele>164.6</ele>
        <time>2022-01-25T09:32:10Z</time>
      </trkpt>
      <trkpt lat="48.72173" lon="1.98162">
        <ele>164.6</ele>
        <time>2022-01-25T09:32:21Z</time>
      </trkpt>
      <trkpt lat="48.72192" lon="1.98166">
        <ele>164.1</ele>
        <time>2022-01-25T09:32:32Z</time>
      </trkpt>
      <trkpt lat="48.7221" lon="1.98168">
        <ele>164</ele>
        <time>2022-01-25T09:32:42Z</time>
      </trkpt>
      <trkpt lat="48.72229" lon="1.98171">
        <ele>164</ele>
        <time>2022-01-25T09:32:56Z</time>
      </trkpt>
      <trkpt lat="48.72248" lon="1.98172">
        <ele>164</ele>
        <time>2022-01-25T09:33:05Z</time>
      </trkpt>
      <trkpt lat="48.72268" lon="1.98173">
        <ele>163.5</ele>
        <time>2022-01-25T09:33:15Z</time>
      </trkpt>
      <trkpt lat="48.72286" lon="1.98177">
        <ele>163.3</ele>
        <time>2022-01-25T09:33:26Z</time>
      </trkpt>
      <trkpt lat="48.72304" lon="1.98181">
        <ele>163</ele>
        <time>2022-01-25T09:33:35Z</time>
      </trkpt>
      <trkpt lat="48.72322" lon="1.98183">
        <ele>163</ele>
        <time>2022-01-25T09:33:45Z</time>
      </trkpt>
      <trkpt lat="48.72341" lon="1.98188">
        <ele>162.7</ele>
        <time>2022-01-25T09:33:59Z</time>
      </trkpt>
      <trkpt lat="48.7236" lon="1.98191">
        <ele>162.1</ele>
        <time>2022-01-25T09:34:10Z</time>
      </trkpt>
      <trkpt lat="48.72378" lon="1.9819">
        <ele>160.7</ele>
        <time>2022-01-25T09:34:33Z</time>
      </trkpt>
      <trkpt lat="48.72397" lon="1.98196">
        <ele>159.5</ele>
        <time>2022-01-25T09:34:45Z</time>
      </trkpt>
      <trkpt lat="48.72414" lon="1.9821">
        <ele>158.7</ele>
        <time>2022-01-25T09:35:10Z</time>
      </trkpt>
      <trkpt lat="48.7243" lon="1.98223">
        <ele>157.6</ele>
        <time>2022-01-25T09:35:25Z</time>
      </trkpt>
      <trkpt lat="48.72439" lon="1.98248">
        <ele>158.2</ele>
        <time>2022-01-25T09:35:39Z</time>
      </trkpt>
      <trkpt lat="48.7245" lon="1.98271">
        <ele>158.5</ele>
        <time>2022-01-25T09:35:52Z</time>
      </trkpt>
      <trkpt lat="48.72457" lon="1.98297">
        <ele>159.2</ele>
        <time>2022-01-25T09:36:05Z</time>
      </trkpt>
      <trkpt lat="48.72464" lon="1.98323">
        <ele>159.7</ele>
        <time>2022-01-25T09:36:17Z</time>
      </trkpt>
      <trkpt lat="48.72481" lon="1.98335">
        <ele>160.3</ele>
        <time>2022-01-25T09:36:36Z</time>
      </trkpt>
      <trkpt lat="48.72499" lon="1.98324">
        <ele>160.3</ele>
        <time>2022-01-25T09:36:52Z</time>
      </trkpt>
      <trkpt lat="48.72516" lon="1.98312">
        <ele>159.9</ele>
        <time>2022-01-25T09:37:07Z</time>
      </trkpt>
      <trkpt lat="48.72534" lon="1.983">
        <ele>159.9</ele>
        <time>2022-01-25T09:37:23Z</time>
      </trkpt>
      <trkpt lat="48.7255" lon="1.98286">
        <ele>160</ele>
        <time>2022-01-25T09:37:38Z</time>
      </trkpt>
      <trkpt lat="48.72568" lon="1.98276">
        <ele>160.3</ele>
        <time>2022-01-25T09:37:49Z</time>
      </trkpt>
      <trkpt lat="48.72584" lon="1.98261">
        <ele>159.8</ele>
        <time>2022-01-25T09:38:02Z</time>
      </trkpt>
      <trkpt lat="48.72601" lon="1.9825">
        <ele>159.6</ele>
        <time>2022-01-25T09:38:15Z</time>
      </trkpt>
      <trkpt lat="48.72617" lon="1.98235">
        <ele>159</ele>
        <time>2022-01-25T09:38:28Z</time>
      </trkpt>
      <trkpt lat="48.72635" lon="1.98222">
        <ele>158.8</ele>
        <time>2022-01-25T09:38:41Z</time>
      </trkpt>
      <trkpt lat="48.72652" lon="1.9821">
        <ele>158.1</ele>
        <time>2022-01-25T09:38:53Z</time>
      </trkpt>
      <trkpt lat="48.72669" lon="1.98199">
        <ele>157.4</ele>
        <time>2022-01-25T09:39:05Z</time>
      </trkpt>
      <trkpt lat="48.72684" lon="1.98182">
        <ele>156.9</ele>
        <time>2022-01-25T09:39:23Z</time>
      </trkpt>
      <trkpt lat="48.72701" lon="1.98168">
        <ele>156.1</ele>
        <time>2022-01-25T09:39:36Z</time>
      </trkpt>
      <trkpt lat="48.72718" lon="1.98153">
        <ele>155.5</ele>
        <time>2022-01-25T09:39:46Z</time>
      </trkpt>
      <trkpt lat="48.72735" lon="1.9814">
        <ele>155</ele>
        <time>2022-01-25T09:39:59Z</time>
      </trkpt>
      <trkpt lat="48.72748" lon="1.98119">
        <ele>155</ele>
        <time>2022-01-25T09:40:13Z</time>
      </trkpt>
      <trkpt lat="48.72751" lon="1.98092">
        <ele>155.1</ele>
        <time>2022-01-25T09:40:25Z</time>
      </trkpt>
      <trkpt lat="48.72756" lon="1.98065">
        <ele>155.9</ele>
        <time>2022-01-25T09:40:38Z</time>
      </trkpt>
      <trkpt lat="48.72765" lon="1.9804">
        <ele>156.8</ele>
        <time>2022-01-25T09:40:51Z</time>
      </trkpt>
      <trkpt lat="48.72775" lon="1.98018">
        <ele>157.3</ele>
        <time>2022-01-25T09:41:04Z</time>
      </trkpt>
      <trkpt lat="48.72787" lon="1.97995">
        <ele>158</ele>
        <time>2022-01-25T09:41:17Z</time>
      </trkpt>
      <trkpt lat="48.72799" lon="1.97974">
        <ele>158</ele>
        <time>2022-01-25T09:41:31Z</time>
      </trkpt>
      <trkpt lat="48.72811" lon="1.97952">
        <ele>158.8</ele>
        <time>2022-01-25T09:41:45Z</time>
      </trkpt>
      <trkpt lat="48.72822" lon="1.9793">
        <ele>159</ele>
        <time>2022-01-25T09:41:58Z</time>
      </trkpt>
      <trkpt lat="48.72836" lon="1.97909">
        <ele>159</ele>
        <time>2022-01-25T09:42:13Z</time>
      </trkpt>
      <trkpt lat="48.72846" lon="1.97887">
        <ele>159</ele>
        <time>2022-01-25T09:42:26Z</time>
      </trkpt>
      <trkpt lat="48.72856" lon="1.97863">
        <ele>159</ele>
        <time>2022-01-25T09:42:39Z</time>
      </trkpt>
      <trkpt lat="48.72868" lon="1.97841">
        <ele>159</ele>
        <time>2022-01-25T09:42:52Z</time>
      </trkpt>
      <trkpt lat="48.72879" lon="1.97819">
        <ele>159.3</ele>
        <time>2022-01-25T09:43:06Z</time>
      </trkpt>
      <trkpt lat="48.72888" lon="1.97794">
        <ele>160</ele>
        <time>2022-01-25T09:43:20Z</time>
      </trkpt>
      <trkpt lat="48.72901" lon="1.97773">
        <ele>160</ele>
        <time>2022-01-25T09:43:32Z</time>
      </trkpt>
      <trkpt lat="48.72914" lon="1.97751">
        <ele>160</ele>
        <time>2022-01-25T09:43:43Z</time>
      </trkpt>
      <trkpt lat="48.72926" lon="1.97731">
        <ele>160</ele>
        <time>2022-01-25T09:43:55Z</time>
      </trkpt>
      <trkpt lat="48.72939" lon="1.97711">
        <ele>160</ele>
        <time>2022-01-25T09:44:10Z</time>
      </trkpt>
      <trkpt lat="48.7295" lon="1.97687">
        <ele>160</ele>
        <time>2022-01-25T09:44:23Z</time>
      </trkpt>
      <trkpt lat="48.72962" lon="1.97665">
        <ele>160.1</ele>
        <time>2022-01-25T09:44:35Z</time>
      </trkpt>
      <trkpt lat="48.72973" lon="1.97641">
        <ele>160.9</ele>
        <time>2022-01-25T09:44:48Z</time>
      </trkpt>
      <trkpt lat="48.72982" lon="1.97616">
        <ele>161</ele>
        <time>2022-01-25T09:45:01Z</time>
      </trkpt>
      <trkpt lat="48.72986" lon="1.97587">
        <ele>161</ele>
        <time>2022-01-25T09:45:14Z</time>
      </trkpt>
      <trkpt lat="48.72985" lon="1.97558">
        <ele>161</ele>
        <time>2022-01-25T09:45:28Z</time>
      </trkpt>
      <trkpt lat="48.72986" lon="1.97529">
        <ele>161</ele>
        <time>2022-01-25T09:45:40Z</time>
      </trkpt>
      <trkpt lat="48.72984" lon="1.97502">
        <ele>161</ele>
        <time>2022-01-25T09:45:52Z</time>
      </trkpt>
      <trkpt lat="48.72986" lon="1.97474">
        <ele>161.5</ele>
        <time>2022-01-25T09:46:04Z</time>
      </trkpt>
      <trkpt lat="48.72987" lon="1.97447">
        <ele>162</ele>
        <time>2022-01-25T09:46:16Z</time>
      </trkpt>
      <trkpt lat="48.72987" lon="1.97418">
        <ele>162</ele>
        <time>2022-01-25T09:46:29Z</time>
      </trkpt>
      <trkpt lat="48.72991" lon="1.97391">
        <ele>162</ele>
        <time>2022-01-25T09:46:40Z</time>
      </trkpt>
      <trkpt lat="48.72996" lon="1.97365">
        <ele>162</ele>
        <time>2022-01-25T09:46:51Z</time>
      </trkpt>
      <trkpt lat="48.73001" lon="1.97338">
        <ele>162.8</ele>
        <time>2022-01-25T09:47:02Z</time>
      </trkpt>
      <trkpt lat="48.73006" lon="1.97311">
        <ele>163</ele>
        <time>2022-01-25T09:47:15Z</time>
      </trkpt>
      <trkpt lat="48.72988" lon="1.97317">
        <ele>163</ele>
        <time>2022-01-25T09:49:43Z</time>
      </trkpt>
      <trkpt lat="48.72978" lon="1.97341">
        <ele>162.7</ele>
        <time>2022-01-25T09:49:56Z</time>
      </trkpt>
      <trkpt lat="48.72968" lon="1.97364">
        <ele>162.1</ele>
        <time>2022-01-25T09:50:10Z</time>
      </trkpt>
      <trkpt lat="48.72956" lon="1.97387">
        <ele>162</ele>
        <time>2022-01-25T09:50:24Z</time>
      </trkpt>
      <trkpt lat="48.72942" lon="1.97405">
        <ele>162.1</ele>
        <time>2022-01-25T09:50:39Z</time>
      </trkpt>
      <trkpt lat="48.72927" lon="1.97423">
        <ele>162.5</ele>
        <time>2022-01-25T09:50:53Z</time>
      </trkpt>
      <trkpt lat="48.72911" lon="1.97438">
        <ele>162.4</ele>
        <time>2022-01-25T09:51:08Z</time>
      </trkpt>
      <trkpt lat="48.72892" lon="1.97437">
        <ele>162.9</ele>
        <time>2022-01-25T09:51:24Z</time>
      </trkpt>
      <trkpt lat="48.72873" lon="1.97436">
        <ele>163</ele>
        <time>2022-01-25T09:51:38Z</time>
      </trkpt>
      <trkpt lat="48.72854" lon="1.97431">
        <ele>163.1</ele>
        <time>2022-01-25T09:51:51Z</time>
      </trkpt>
      <trkpt lat="48.72836" lon="1.97431">
        <ele>163.5</ele>
        <time>2022-01-25T09:52:03Z</time>
      </trkpt>
      <trkpt lat="48.72817" lon="1.97432">
        <ele>163.2</ele>
        <time>2022-01-25T09:52:14Z</time>
      </trkpt>
      <trkpt lat="48.728" lon="1.97424">
        <ele>163</ele>
        <time>2022-01-25T09:52:25Z</time>
      </trkpt>
      <trkpt lat="48.72783" lon="1.97414">
        <ele>163.1</ele>
        <time>2022-01-25T09:52:37Z</time>
      </trkpt>
      <trkpt lat="48.72765" lon="1.97405">
        <ele>163.7</ele>
        <time>2022-01-25T09:52:50Z</time>
      </trkpt>
      <trkpt lat="48.72749" lon="1.9739">
        <ele>164</ele>
        <time>2022-01-25T09:53:04Z</time>
      </trkpt>
      <trkpt lat="48.72733" lon="1.97376">
        <ele>164</ele>
        <time>2022-01-25T09:53:17Z</time>
      </trkpt>
      <trkpt lat="48.72716" lon="1.97362">
        <ele>164</ele>
        <time>2022-01-25T09:53:34Z</time>
      </trkpt>
      <trkpt lat="48.727" lon="1.97347">
        <ele>164</ele>
        <time>2022-01-25T09:53:46Z</time>
      </trkpt>
      <trkpt lat="48.72685" lon="1.97331">
        <ele>164</ele>
        <time>2022-01-25T09:53:58Z</time>
      </trkpt>
      <trkpt lat="48.7267" lon="1.97314">
        <ele>164</ele>
        <time>2022-01-25T09:54:10Z</time>
      </trkpt>
      <trkpt lat="48.72654" lon="1.97298">
        <ele>164</ele>
        <time>2022-01-25T09:54:22Z</time>
      </trkpt>
      <trkpt lat="48.72639" lon="1.97282">
        <ele>164</ele>
        <time>2022-01-25T09:54:34Z</time>
      </trkpt>
      <trkpt lat="48.72623" lon="1.97266">
        <ele>163.7</ele>
        <time>2022-01-25T09:54:46Z</time>
      </trkpt>
      <trkpt lat="48.72609" lon="1.97249">
        <ele>163.9</ele>
        <time>2022-01-25T09:54:58Z</time>
      </trkpt>
      <trkpt lat="48.72593" lon="1.97234">
        <ele>163.7</ele>
        <time>2022-01-25T09:55:11Z</time>
      </trkpt>
      <trkpt lat="48.72578" lon="1.97218">
        <ele>163.7</ele>
        <time>2022-01-25T09:55:23Z</time>
      </trkpt>
      <trkpt lat="48.72563" lon="1.97201">
        <ele>163.1</ele>
        <time>2022-01-25T09:55:34Z</time>
      </trkpt>
      <trkpt lat="48.72547" lon="1.97187">
        <ele>163</ele>
        <time>2022-01-25T09:55:46Z</time>
      </trkpt>
      <trkpt lat="48.72531" lon="1.97171">
        <ele>163</ele>
        <time>2022-01-25T09:55:59Z</time>
      </trkpt>
      <trkpt lat="48.72516" lon="1.97154">
        <ele>162.6</ele>
        <time>2022-01-25T09:56:11Z</time>
      </trkpt>
      <trkpt lat="48.72515" lon="1.97126">
        <ele>162.6</ele>
        <time>2022-01-25T09:56:22Z</time>
      </trkpt>
      <trkpt lat="48.72517" lon="1.97097">
        <ele>162.1</ele>
        <time>2022-01-25T09:56:35Z</time>
      </trkpt>
      <trkpt lat="48.72519" lon="1.97069">
        <ele>161.5</ele>
        <time>2022-01-25T09:56:48Z</time>
      </trkpt>
      <trkpt lat="48.7252" lon="1.97041">
        <ele>160.9</ele>
        <time>2022-01-25T09:57:00Z</time>
      </trkpt>
      <trkpt lat="48.72521" lon="1.97012">
        <ele>160.5</ele>
        <time>2022-01-25T09:57:12Z</time>
      </trkpt>
      <trkpt lat="48.72523" lon="1.96983">
        <ele>160.8</ele>
        <time>2022-01-25T09:57:25Z</time>
      </trkpt>
      <trkpt lat="48.72525" lon="1.96954">
        <ele>161.5</ele>
        <time>2022-01-25T09:57:38Z</time>
      </trkpt>
      <trkpt lat="48.72526" lon="1.96926">
        <ele>162</ele>
        <time>2022-01-25T09:57:52Z</time>
      </trkpt>
      <trkpt lat="48.7252" lon="1.969">
        <ele>162.6</ele>
        <time>2022-01-25T09:58:06Z</time>
      </trkpt>
      <trkpt lat="48.72509" lon="1.96877">
        <ele>163.1</ele>
        <time>2022-01-25T09:58:37Z</time>
      </trkpt>
      <trkpt lat="48.72497" lon="1.96857">
        <ele>163.1</ele>
        <time>2022-01-25T09:58:50Z</time>
      </trkpt>
      <trkpt lat="48.72487" lon="1.96834">
        <ele>163.5</ele>
        <time>2022-01-25T09:59:03Z</time>
      </trkpt>
      <trkpt lat="48.72478" lon="1.9681">
        <ele>163.9</ele>
        <time>2022-01-25T09:59:14Z</time>
      </trkpt>
      <trkpt lat="48.72469" lon="1.96784">
        <ele>164</ele>
        <time>2022-01-25T09:59:26Z</time>
      </trkpt>
      <trkpt lat="48.72461" lon="1.96757">
        <ele>164</ele>
        <time>2022-01-25T09:59:40Z</time>
      </trkpt>
      <trkpt lat="48.72453" lon="1.96733">
        <ele>164</ele>
        <time>2022-01-25T09:59:54Z</time>
      </trkpt>
      <trkpt lat="48.72436" lon="1.96726">
        <ele>164</ele>
        <time>2022-01-25T10:00:46Z</time>
      </trkpt>
      <trkpt lat="48.72418" lon="1.96723">
        <ele>164</ele>
        <time>2022-01-25T10:01:00Z</time>
      </trkpt>
      <trkpt lat="48.72399" lon="1.96719">
        <ele>163.4</ele>
        <time>2022-01-25T10:01:14Z</time>
      </trkpt>
      <trkpt lat="48.7238" lon="1.9671">
        <ele>163</ele>
        <time>2022-01-25T10:01:30Z</time>
      </trkpt>
      <trkpt lat="48.72362" lon="1.96707">
        <ele>163</ele>
        <time>2022-01-25T10:01:42Z</time>
      </trkpt>
      <trkpt lat="48.72342" lon="1.96706">
        <ele>162</ele>
        <time>2022-01-25T10:01:54Z</time>
      </trkpt>
      <trkpt lat="48.72323" lon="1.96708">
        <ele>161.2</ele>
        <time>2022-01-25T10:02:06Z</time>
      </trkpt>
      <trkpt lat="48.72305" lon="1.96712">
        <ele>160.4</ele>
        <time>2022-01-25T10:02:18Z</time>
      </trkpt>
      <trkpt lat="48.72288" lon="1.96723">
        <ele>159.9</ele>
        <time>2022-01-25T10:02:30Z</time>
      </trkpt>
      <trkpt lat="48.72275" lon="1.96744">
        <ele>157.9</ele>
        <time>2022-01-25T10:02:43Z</time>
      </trkpt>
      <trkpt lat="48.72256" lon="1.96741">
        <ele>159.3</ele>
        <time>2022-01-25T10:02:58Z</time>
      </trkpt>
      <trkpt lat="48.72238" lon="1.96746">
        <ele>160.1</ele>
        <time>2022-01-25T10:03:10Z</time>
      </trkpt>
      <trkpt lat="48.72219" lon="1.96755">
        <ele>160.8</ele>
        <time>2022-01-25T10:03:22Z</time>
      </trkpt>
      <trkpt lat="48.72201" lon="1.96766">
        <ele>161</ele>
        <time>2022-01-25T10:03:34Z</time>
      </trkpt>
      <trkpt lat="48.72184" lon="1.96775">
        <ele>161.5</ele>
        <time>2022-01-25T10:03:45Z</time>
      </trkpt>
      <trkpt lat="48.72167" lon="1.96785">
        <ele>161.7</ele>
        <time>2022-01-25T10:03:57Z</time>
      </trkpt>
      <trkpt lat="48.72148" lon="1.96791">
        <ele>162.2</ele>
        <time>2022-01-25T10:04:10Z</time>
      </trkpt>
      <trkpt lat="48.7213" lon="1.968">
        <ele>162.2</ele>
        <time>2022-01-25T10:04:24Z</time>
      </trkpt>
      <trkpt lat="48.72113" lon="1.96809">
        <ele>161.9</ele>
        <time>2022-01-25T10:04:37Z</time>
      </trkpt>
      <trkpt lat="48.72095" lon="1.96817">
        <ele>161.6</ele>
        <time>2022-01-25T10:04:51Z</time>
      </trkpt>
      <trkpt lat="48.72078" lon="1.9683">
        <ele>161.1</ele>
        <time>2022-01-25T10:05:02Z</time>
      </trkpt>
      <trkpt lat="48.7206" lon="1.96833">
        <ele>161</ele>
        <time>2022-01-25T10:05:14Z</time>
      </trkpt>
      <trkpt lat="48.72041" lon="1.96835">
        <ele>159.9</ele>
        <time>2022-01-25T10:05:26Z</time>
      </trkpt>
      <trkpt lat="48.72024" lon="1.96841">
        <ele>158.6</ele>
        <time>2022-01-25T10:05:39Z</time>
      </trkpt>
      <trkpt lat="48.72006" lon="1.96844">
        <ele>157.8</ele>
        <time>2022-01-25T10:05:51Z</time>
      </trkpt>
      <trkpt lat="48.71988" lon="1.96846">
        <ele>156.7</ele>
        <time>2022-01-25T10:06:04Z</time>
      </trkpt>
      <trkpt lat="48.7197" lon="1.96849">
        <ele>155.3</ele>
        <time>2022-01-25T10:06:16Z</time>
      </trkpt>
      <trkpt lat="48.71963" lon="1.96822">
        <ele>155.9</ele>
        <time>2022-01-25T10:08:38Z</time>
      </trkpt>
      <trkpt lat="48.71958" lon="1.96795">
        <ele>155.6</ele>
        <time>2022-01-25T10:08:50Z</time>
      </trkpt>
      <trkpt lat="48.71967" lon="1.9677">
        <ele>155.6</ele>
        <time>2022-01-25T10:09:05Z</time>
      </trkpt>
      <trkpt lat="48.71978" lon="1.96747">
        <ele>156.5</ele>
        <time>2022-01-25T10:09:22Z</time>
      </trkpt>
      <trkpt lat="48.71987" lon="1.96723">
        <ele>156.6</ele>
        <time>2022-01-25T10:09:36Z</time>
      </trkpt>
      <trkpt lat="48.71999" lon="1.96701">
        <ele>157.9</ele>
        <time>2022-01-25T10:09:49Z</time>
      </trkpt>
      <trkpt lat="48.7201" lon="1.9668">
        <ele>158.4</ele>
        <time>2022-01-25T10:10:01Z</time>
      </trkpt>
      <trkpt lat="48.72021" lon="1.96658">
        <ele>158.9</ele>
        <time>2022-01-25T10:10:13Z</time>
      </trkpt>
      <trkpt lat="48.72036" lon="1.96641">
        <ele>159.7</ele>
        <time>2022-01-25T10:10:26Z</time>
      </trkpt>
      <trkpt lat="48.72047" lon="1.9662">
        <ele>160.2</ele>
        <time>2022-01-25T10:10:38Z</time>
      </trkpt>
      <trkpt lat="48.72063" lon="1.96603">
        <ele>161</ele>
        <time>2022-01-25T10:10:52Z</time>
      </trkpt>
      <trkpt lat="48.72075" lon="1.96581">
        <ele>161.4</ele>
        <time>2022-01-25T10:11:04Z</time>
      </trkpt>
      <trkpt lat="48.72087" lon="1.9656">
        <ele>162.1</ele>
        <time>2022-01-25T10:11:15Z</time>
      </trkpt>
      <trkpt lat="48.721" lon="1.9654">
        <ele>162.4</ele>
        <time>2022-01-25T10:11:27Z</time>
      </trkpt>
      <trkpt lat="48.72114" lon="1.96519">
        <ele>162.8</ele>
        <time>2022-01-25T10:11:40Z</time>
      </trkpt>
      <trkpt lat="48.72131" lon="1.96508">
        <ele>163.5</ele>
        <time>2022-01-25T10:11:51Z</time>
      </trkpt>
      <trkpt lat="48.72146" lon="1.96491">
        <ele>164</ele>
        <time>2022-01-25T10:12:04Z</time>
      </trkpt>
      <trkpt lat="48.72164" lon="1.96484">
        <ele>164.9</ele>
        <time>2022-01-25T10:12:16Z</time>
      </trkpt>
      <trkpt lat="48.72183" lon="1.96479">
        <ele>165</ele>
        <time>2022-01-25T10:12:28Z</time>
      </trkpt>
      <trkpt lat="48.72202" lon="1.96482">
        <ele>165</ele>
        <time>2022-01-25T10:12:39Z</time>
      </trkpt>
      <trkpt lat="48.7222" lon="1.96479">
        <ele>165</ele>
        <time>2022-01-25T10:12:51Z</time>
      </trkpt>
      <trkpt lat="48.72235" lon="1.96461">
        <ele>165</ele>
        <time>2022-01-25T10:13:06Z</time>
      </trkpt>
      <trkpt lat="48.72248" lon="1.96441">
        <ele>165.1</ele>
        <time>2022-01-25T10:13:21Z</time>
      </trkpt>
      <trkpt lat="48.72264" lon="1.96427">
        <ele>165.6</ele>
        <time>2022-01-25T10:13:36Z</time>
      </trkpt>
      <trkpt lat="48.72283" lon="1.9642">
        <ele>165.7</ele>
        <time>2022-01-25T10:13:48Z</time>
      </trkpt>
      <trkpt lat="48.72301" lon="1.96414">
        <ele>165.2</ele>
        <time>2022-01-25T10:14:00Z</time>
      </trkpt>
      <trkpt lat="48.72319" lon="1.96406">
        <ele>165.4</ele>
        <time>2022-01-25T10:14:15Z</time>
      </trkpt>
      <trkpt lat="48.72337" lon="1.96406">
        <ele>165.3</ele>
        <time>2022-01-25T10:14:55Z</time>
      </trkpt>
      <trkpt lat="48.72342" lon="1.96434">
        <ele>165</ele>
        <time>2022-01-25T10:17:33Z</time>
      </trkpt>
      <trkpt lat="48.72349" lon="1.9646">
        <ele>165</ele>
        <time>2022-01-25T10:17:49Z</time>
      </trkpt>
      <trkpt lat="48.7236" lon="1.96483">
        <ele>164.6</ele>
        <time>2022-01-25T10:18:02Z</time>
      </trkpt>
      <trkpt lat="48.72373" lon="1.96503">
        <ele>164</ele>
        <time>2022-01-25T10:18:13Z</time>
      </trkpt>
      <trkpt lat="48.72384" lon="1.96525">
        <ele>164</ele>
        <time>2022-01-25T10:18:24Z</time>
      </trkpt>
      <trkpt lat="48.72392" lon="1.96551">
        <ele>164</ele>
        <time>2022-01-25T10:18:36Z</time>
      </trkpt>
      <trkpt lat="48.72401" lon="1.96576">
        <ele>164</ele>
        <time>2022-01-25T10:18:48Z</time>
      </trkpt>
      <trkpt lat="48.72408" lon="1.96601">
        <ele>163.4</ele>
        <time>2022-01-25T10:19:01Z</time>
      </trkpt>
      <trkpt lat="48.72414" lon="1.96627">
        <ele>163</ele>
        <time>2022-01-25T10:19:14Z</time>
      </trkpt>
      <trkpt lat="48.72419" lon="1.96655">
        <ele>163.6</ele>
        <time>2022-01-25T10:19:29Z</time>
      </trkpt>
      <trkpt lat="48.72428" lon="1.96678">
        <ele>164</ele>
        <time>2022-01-25T10:19:41Z</time>
      </trkpt>
      <trkpt lat="48.7244" lon="1.96701">
        <ele>164</ele>
        <time>2022-01-25T10:19:53Z</time>
      </trkpt>
      <trkpt lat="48.72456" lon="1.96714">
        <ele>164</ele>
        <time>2022-01-25T10:20:07Z</time>
      </trkpt>
      <trkpt lat="48.72468" lon="1.96693">
        <ele>164</ele>
        <time>2022-01-25T10:20:22Z</time>
      </trkpt>
      <trkpt lat="48.72481" lon="1.9667">
        <ele>164.3</ele>
        <time>2022-01-25T10:20:36Z</time>
      </trkpt>
      <trkpt lat="48.72492" lon="1.96649">
        <ele>164.7</ele>
        <time>2022-01-25T10:20:49Z</time>
      </trkpt>
      <trkpt lat="48.72502" lon="1.96624">
        <ele>164.5</ele>
        <time>2022-01-25T10:21:00Z</time>
      </trkpt>
      <trkpt lat="48.72509" lon="1.96597">
        <ele>164.3</ele>
        <time>2022-01-25T10:21:11Z</time>
      </trkpt>
      <trkpt lat="48.7251" lon="1.96569">
        <ele>164.4</ele>
        <time>2022-01-25T10:21:23Z</time>
      </trkpt>
      <trkpt lat="48.72513" lon="1.96541">
        <ele>164.5</ele>
        <time>2022-01-25T10:21:34Z</time>
      </trkpt>
      <trkpt lat="48.72514" lon="1.96513">
        <ele>164.2</ele>
        <time>2022-01-25T10:21:47Z</time>
      </trkpt>
      <trkpt lat="48.72519" lon="1.96485">
        <ele>164</ele>
        <time>2022-01-25T10:22:01Z</time>
      </trkpt>
      <trkpt lat="48.72517" lon="1.96457">
        <ele>164.3</ele>
        <time>2022-01-25T10:22:11Z</time>
      </trkpt>
      <trkpt lat="48.72517" lon="1.96428">
        <ele>164.6</ele>
        <time>2022-01-25T10:22:21Z</time>
      </trkpt>
      <trkpt lat="48.72519" lon="1.96401">
        <ele>164.7</ele>
        <time>2022-01-25T10:22:34Z</time>
      </trkpt>
      <trkpt lat="48.72517" lon="1.96372">
        <ele>164.2</ele>
        <time>2022-01-25T10:22:46Z</time>
      </trkpt>
      <trkpt lat="48.72516" lon="1.96345">
        <ele>163.8</ele>
        <time>2022-01-25T10:23:03Z</time>
      </trkpt>
      <trkpt lat="48.72511" lon="1.96319">
        <ele>162.5</ele>
        <time>2022-01-25T10:23:41Z</time>
      </trkpt>
      <trkpt lat="48.72497" lon="1.963">
        <ele>160.6</ele>
        <time>2022-01-25T10:24:02Z</time>
      </trkpt>
      <trkpt lat="48.72482" lon="1.96283">
        <ele>158.8</ele>
        <time>2022-01-25T10:24:17Z</time>
      </trkpt>
      <trkpt lat="48.72463" lon="1.96277">
        <ele>158.2</ele>
        <time>2022-01-25T10:24:31Z</time>
      </trkpt>
      <trkpt lat="48.72446" lon="1.96269">
        <ele>157.7</ele>
        <time>2022-01-25T10:24:44Z</time>
      </trkpt>
      <trkpt lat="48.72428" lon="1.9626">
        <ele>156.8</ele>
        <time>2022-01-25T10:24:57Z</time>
      </trkpt>
      <trkpt lat="48.7241" lon="1.96255">
        <ele>156.8</ele>
        <time>2022-01-25T10:25:08Z</time>
      </trkpt>
      <trkpt lat="48.72392" lon="1.96253">
        <ele>157.2</ele>
        <time>2022-01-25T10:25:20Z</time>
      </trkpt>
      <trkpt lat="48.72374" lon="1.96245">
        <ele>158.1</ele>
        <time>2022-01-25T10:25:31Z</time>
      </trkpt>
      <trkpt lat="48.72357" lon="1.96232">
        <ele>158.4</ele>
        <time>2022-01-25T10:25:42Z</time>
      </trkpt>
      <trkpt lat="48.7234" lon="1.96219">
        <ele>158.2</ele>
        <time>2022-01-25T10:25:56Z</time>
      </trkpt>
      <trkpt lat="48.72322" lon="1.96208">
        <ele>158.8</ele>
        <time>2022-01-25T10:26:09Z</time>
      </trkpt>
      <trkpt lat="48.72305" lon="1.96198">
        <ele>159.3</ele>
        <time>2022-01-25T10:26:21Z</time>
      </trkpt>
      <trkpt lat="48.72288" lon="1.96188">
        <ele>159.1</ele>
        <time>2022-01-25T10:26:34Z</time>
      </trkpt>
      <trkpt lat="48.72272" lon="1.96172">
        <ele>158.2</ele>
        <time>2022-01-25T10:26:46Z</time>
      </trkpt>
      <trkpt lat="48.72253" lon="1.96173">
        <ele>157.7</ele>
        <time>2022-01-25T10:26:59Z</time>
      </trkpt>
      <trkpt lat="48.72235" lon="1.96172">
        <ele>156.6</ele>
        <time>2022-01-25T10:27:14Z</time>
      </trkpt>
      <trkpt lat="48.72215" lon="1.96176">
        <ele>156.1</ele>
        <time>2022-01-25T10:27:28Z</time>
      </trkpt>
      <trkpt lat="48.72196" lon="1.96183">
        <ele>156.4</ele>
        <time>2022-01-25T10:27:42Z</time>
      </trkpt>
      <trkpt lat="48.72177" lon="1.96184">
        <ele>155.9</ele>
        <time>2022-01-25T10:27:55Z</time>
      </trkpt>
      <trkpt lat="48.7216" lon="1.96193">
        <ele>155.3</ele>
        <time>2022-01-25T10:28:08Z</time>
      </trkpt>
      <trkpt lat="48.72143" lon="1.96205">
        <ele>152.6</ele>
        <time>2022-01-25T10:28:20Z</time>
      </trkpt>
      <trkpt lat="48.72126" lon="1.96214">
        <ele>151.4</ele>
        <time>2022-01-25T10:28:35Z</time>
      </trkpt>
      <trkpt lat="48.72116" lon="1.96237">
        <ele>152.3</ele>
        <time>2022-01-25T10:28:47Z</time>
      </trkpt>
      <trkpt lat="48.72105" lon="1.96258">
        <ele>152.8</ele>
        <time>2022-01-25T10:28:59Z</time>
      </trkpt>
      <trkpt lat="48.72092" lon="1.96277">
        <ele>153</ele>
        <time>2022-01-25T10:29:35Z</time>
      </trkpt>
      <trkpt lat="48.72096" lon="1.96304">
        <ele>154</ele>
        <time>2022-01-25T10:31:26Z</time>
      </trkpt>
      <trkpt lat="48.72082" lon="1.96324">
        <ele>154</ele>
        <time>2022-01-25T10:31:41Z</time>
      </trkpt>
      <trkpt lat="48.72066" lon="1.96339">
        <ele>154.2</ele>
        <time>2022-01-25T10:31:52Z</time>
      </trkpt>
      <trkpt lat="48.72052" lon="1.96356">
        <ele>154.4</ele>
        <time>2022-01-25T10:32:06Z</time>
      </trkpt>
      <trkpt lat="48.72038" lon="1.96375">
        <ele>153.1</ele>
        <time>2022-01-25T10:32:17Z</time>
      </trkpt>
      <trkpt lat="48.7203" lon="1.964">
        <ele>152.6</ele>
        <time>2022-01-25T10:32:29Z</time>
      </trkpt>
      <trkpt lat="48.72028" lon="1.96429">
        <ele>153</ele>
        <time>2022-01-25T10:32:43Z</time>
      </trkpt>
      <trkpt lat="48.72018" lon="1.96454">
        <ele>152.2</ele>
        <time>2022-01-25T10:32:55Z</time>
      </trkpt>
      <trkpt lat="48.72008" lon="1.96479">
        <ele>152.4</ele>
        <time>2022-01-25T10:33:06Z</time>
      </trkpt>
      <trkpt lat="48.71993" lon="1.96497">
        <ele>151.6</ele>
        <time>2022-01-25T10:33:18Z</time>
      </trkpt>
      <trkpt lat="48.71977" lon="1.96511">
        <ele>149.1</ele>
        <time>2022-01-25T10:33:34Z</time>
      </trkpt>
      <trkpt lat="48.71979" lon="1.9654">
        <ele>150.3</ele>
        <time>2022-01-25T10:33:55Z</time>
      </trkpt>
      <trkpt lat="48.71973" lon="1.96566">
        <ele>150.9</ele>
        <time>2022-01-25T10:34:44Z</time>
      </trkpt>
      <trkpt lat="48.71963" lon="1.96589">
        <ele>150.3</ele>
        <time>2022-01-25T10:34:55Z</time>
      </trkpt>
      <trkpt lat="48.71953" lon="1.96613">
        <ele>150.4</ele>
        <time>2022-01-25T10:35:07Z</time>
      </trkpt>
      <trkpt lat="48.71942" lon="1.96635">
        <ele>149.9</ele>
        <time>2022-01-25T10:35:22Z</time>
      </trkpt>
      <trkpt lat="48.71929" lon="1.96654">
        <ele>148.2</ele>
        <time>2022-01-25T10:35:39Z</time>
      </trkpt>
      <trkpt lat="48.71925" lon="1.96682">
        <ele>149.1</ele>
        <time>2022-01-25T10:36:04Z</time>
      </trkpt>
      <trkpt lat="48.71924" lon="1.96711">
        <ele>149.8</ele>
        <time>2022-01-25T10:36:20Z</time>
      </trkpt>
      <trkpt lat="48.71912" lon="1.96732">
        <ele>147.1</ele>
        <time>2022-01-25T10:36:32Z</time>
      </trkpt>
      <trkpt lat="48.71897" lon="1.96747">
        <ele>141.2</ele>
        <time>2022-01-25T10:37:02Z</time>
      </trkpt>
      <trkpt lat="48.7188" lon="1.96758">
        <ele>134</ele>
        <time>2022-01-25T10:37:23Z</time>
      </trkpt>
      <trkpt lat="48.71862" lon="1.96764">
        <ele>125.8</ele>
        <time>2022-01-25T10:37:53Z</time>
      </trkpt>
      <trkpt lat="48.71846" lon="1.9678">
        <ele>121.5</ele>
        <time>2022-01-25T10:38:48Z</time>
      </trkpt>
      <trkpt lat="48.71828" lon="1.96787">
        <ele>116.1</ele>
        <time>2022-01-25T10:39:00Z</time>
      </trkpt>
      <trkpt lat="48.7181" lon="1.96783">
        <ele>110.3</ele>
        <time>2022-01-25T10:39:21Z</time>
      </trkpt>
      <trkpt lat="48.71792" lon="1.96776">
        <ele>105.4</ele>
        <time>2022-01-25T10:39:38Z</time>
      </trkpt>
      <trkpt lat="48.71797" lon="1.96749">
        <ele>104.8</ele>
        <time>2022-01-25T10:41:29Z</time>
      </trkpt>
      <trkpt lat="48.71803" lon="1.96723">
        <ele>104.8</ele>
        <time>2022-01-25T10:41:44Z</time>
      </trkpt>
      <trkpt lat="48.71808" lon="1.96694">
        <ele>105.6</ele>
        <time>2022-01-25T10:41:58Z</time>
      </trkpt>
      <trkpt lat="48.71808" lon="1.96664">
        <ele>104.6</ele>
        <time>2022-01-25T10:42:10Z</time>
      </trkpt>
      <trkpt lat="48.71814" lon="1.96637">
        <ele>105.2</ele>
        <time>2022-01-25T10:42:23Z</time>
      </trkpt>
      <trkpt lat="48.7182" lon="1.9661">
        <ele>105</ele>
        <time>2022-01-25T10:42:35Z</time>
      </trkpt>
      <trkpt lat="48.71827" lon="1.96583">
        <ele>103.5</ele>
        <time>2022-01-25T10:42:48Z</time>
      </trkpt>
      <trkpt lat="48.71836" lon="1.96558">
        <ele>104.1</ele>
        <time>2022-01-25T10:43:01Z</time>
      </trkpt>
      <trkpt lat="48.71842" lon="1.96531">
        <ele>105.3</ele>
        <time>2022-01-25T10:43:13Z</time>
      </trkpt>
      <trkpt lat="48.71853" lon="1.9651">
        <ele>106</ele>
        <time>2022-01-25T10:43:29Z</time>
      </trkpt>
      <trkpt lat="48.7186" lon="1.96483">
        <ele>105.3</ele>
        <time>2022-01-25T10:43:41Z</time>
      </trkpt>
      <trkpt lat="48.71867" lon="1.96457">
        <ele>105.6</ele>
        <time>2022-01-25T10:43:54Z</time>
      </trkpt>
      <trkpt lat="48.71868" lon="1.9643">
        <ele>105.2</ele>
        <time>2022-01-25T10:44:06Z</time>
      </trkpt>
      <trkpt lat="48.71871" lon="1.96401">
        <ele>104.6</ele>
        <time>2022-01-25T10:44:18Z</time>
      </trkpt>
      <trkpt lat="48.71881" lon="1.96378">
        <ele>104.7</ele>
        <time>2022-01-25T10:44:32Z</time>
      </trkpt>
      <trkpt lat="48.71886" lon="1.96351">
        <ele>104.4</ele>
        <time>2022-01-25T10:44:43Z</time>
      </trkpt>
      <trkpt lat="48.71892" lon="1.96323">
        <ele>104.3</ele>
        <time>2022-01-25T10:44:54Z</time>
      </trkpt>
      <trkpt lat="48.71899" lon="1.96296">
        <ele>104.8</ele>
        <time>2022-01-25T10:45:07Z</time>
      </trkpt>
      <trkpt lat="48.71914" lon="1.96278">
        <ele>105.7</ele>
        <time>2022-01-25T10:45:22Z</time>
      </trkpt>
      <trkpt lat="48.71923" lon="1.96254">
        <ele>106.7</ele>
        <time>2022-01-25T10:45:37Z</time>
      </trkpt>
      <trkpt lat="48.71933" lon="1.96229">
        <ele>108.7</ele>
        <time>2022-01-25T10:45:52Z</time>
      </trkpt>
      <trkpt lat="48.71935" lon="1.96201">
        <ele>106.9</ele>
        <time>2022-01-25T10:46:05Z</time>
      </trkpt>
      <trkpt lat="48.71941" lon="1.96173">
        <ele>105.3</ele>
        <time>2022-01-25T10:46:19Z</time>
      </trkpt>
      <trkpt lat="48.7195" lon="1.96149">
        <ele>106.2</ele>
        <time>2022-01-25T10:46:34Z</time>
      </trkpt>
      <trkpt lat="48.71959" lon="1.96124">
        <ele>107.9</ele>
        <time>2022-01-25T10:46:48Z</time>
      </trkpt>
      <trkpt lat="48.71967" lon="1.96097">
        <ele>108.6</ele>
        <time>2022-01-25T10:47:02Z</time>
      </trkpt>
      <trkpt lat="48.7197" lon="1.96069">
        <ele>108.2</ele>
        <time>2022-01-25T10:47:14Z</time>
      </trkpt>
      <trkpt lat="48.71975" lon="1.96042">
        <ele>107.9</ele>
        <time>2022-01-25T10:47:27Z</time>
      </trkpt>
      <trkpt lat="48.71981" lon="1.96016">
        <ele>108.3</ele>
        <time>2022-01-25T10:47:42Z</time>
      </trkpt>
      <trkpt lat="48.71985" lon="1.95988">
        <ele>108.8</ele>
        <time>2022-01-25T10:47:54Z</time>
      </trkpt>
      <trkpt lat="48.71983" lon="1.9596">
        <ele>108.4</ele>
        <time>2022-01-25T10:48:07Z</time>
      </trkpt>
      <trkpt lat="48.71987" lon="1.9593">
        <ele>108.1</ele>
        <time>2022-01-25T10:52:44Z</time>
      </trkpt>
    </trkseg>
  </trk>
</gpx>